Archival Weather

Chicago O'hare International

Chicago O'hare International, Illinois (KORD)

Report from: Saturday, May 14, 2022 11:51 AM CDT
Current time: Monday, May 23, 2022 2:31 AM CDT

Current weather
Weather history
Weather forecast

Temperature26.7°C (80.1°F)
Heat index27.5°C (81.5°F)
Dew point16.1°C (61.0°F)
Winds 3 kts (1.5 m/s, 3.5 mph) Vrb
Winds variableWinds variable
Visibility10 mi. (16.1 km)
Clouds Few clouds 12,000 ft. (3,658 m)
Scattered clouds 15,000 ft. (4,572 m)
Ceiling: Broken clouds 25,000 ft. (7,620 m)
Altimeter29.93 in.Hg (1014 mB)
Relative humidity52 %
Density altitude1,592 ft. (485 m)
Sea-level pressure101.3 kPa (1013 mB, 29.92 in.Hg)
Remarks Automated weather observing station with precipitation discriminator
Flight conditions Visual Meteorological Conditions
Raw dataKORD 141651Z VRB03KT 10SM FEW120 SCT150 BKN250 27/16 A2993 RMK AO2 SLP131 T02670161
An error has occurred. This application may no longer respond until reloaded. Reload 🗙